createdAt,value
2023-01-04T00:04:08.048Z,4.30
2023-01-04T00:09:11.622Z,5.40
2023-01-04T00:14:17.490Z,4.90
2023-01-04T00:19:20.977Z,3.90
2023-01-04T00:24:24.695Z,4.30
2023-01-04T00:29:28.314Z,4.60
2023-01-04T00:34:31.828Z,4.20
2023-01-04T00:39:35.345Z,4.30
2023-01-04T00:44:38.965Z,4.40
2023-01-04T00:49:42.479Z,4.70
2023-01-04T00:54:46.813Z,4.50
2023-01-04T00:59:50.233Z,4.60
2023-01-04T01:04:53.741Z,3.80
2023-01-04T01:09:57.156Z,4.50
2023-01-04T01:15:01.065Z,4.70
2023-01-04T01:20:06.068Z,5.60
2023-01-04T01:25:09.856Z,4.20
2023-01-04T01:30:13.778Z,5.10
2023-01-04T01:35:17.604Z,4.40
2023-01-04T01:40:21.020Z,4.90
2023-01-04T01:45:33.953Z,4.70
2023-01-04T01:50:45.249Z,4.40
2023-01-04T01:55:51.766Z,5.20
2023-01-04T02:00:55.357Z,6.50
2023-01-04T02:06:02.177Z,5.80
2023-01-04T02:11:05.996Z,5.40
2023-01-04T02:16:31.658Z,5.50
2023-01-04T02:21:57.033Z,6.70
2023-01-04T02:27:31.676Z,5.20
2023-01-04T02:32:51.166Z,5.80
2023-01-04T02:38:26.220Z,6.40
2023-01-04T02:44:14.589Z,7.70
2023-01-04T02:49:37.047Z,4.90
2023-01-04T02:54:42.332Z,4.50
2023-01-04T02:59:51.557Z,5.40
2023-01-04T03:05:36.235Z,6.60
2023-01-04T03:10:45.895Z,6.60
2023-01-04T03:15:58.421Z,5.40
2023-01-04T03:21:04.854Z,4.90
2023-01-04T03:26:36.785Z,4.90
2023-01-04T03:32:06.723Z,5.10
2023-01-04T03:37:16.791Z,5.70
2023-01-04T03:43:15.704Z,6.00
2023-01-04T03:48:32.694Z,5.80
2023-01-04T03:54:06.667Z,5.60
2023-01-04T03:59:11.954Z,5.80
2023-01-04T04:04:34.380Z,5.90
2023-01-04T04:09:38.100Z,6.20
2023-01-04T04:14:41.621Z,6.60
2023-01-04T04:19:45.145Z,6.70
2023-01-04T04:24:48.648Z,5.60
2023-01-04T04:29:52.265Z,5.40
2023-01-04T04:34:55.784Z,3.90
2023-01-04T04:39:59.501Z,5.50
2023-01-04T04:45:02.978Z,7.50
2023-01-04T04:50:06.944Z,5.50
2023-01-04T04:55:10.464Z,6.20
2023-01-04T05:00:14.828Z,6.00
2023-01-04T05:05:18.203Z,7.60
2023-01-04T05:10:21.720Z,7.90
2023-01-04T05:15:27.469Z,5.20
2023-01-04T05:20:31.004Z,6.30
2023-01-04T05:25:34.848Z,7.10
2023-01-04T05:30:50.903Z,8.20
2023-01-04T05:35:56.403Z,7.20
2023-01-04T05:40:59.924Z,7.80
2023-01-04T05:46:03.384Z,8.90
2023-01-04T05:51:07.064Z,9.80
2023-01-04T05:56:10.566Z,9.70
2023-01-04T06:01:14.136Z,8.60
2023-01-04T06:06:17.800Z,8.30
2023-01-04T06:11:27.202Z,9.90
2023-01-04T06:16:31.551Z,9.60
2023-01-04T06:21:35.224Z,10.00
2023-01-04T06:26:38.829Z,8.80
2023-01-04T06:31:42.445Z,9.40
2023-01-04T06:36:45.960Z,9.20
2023-01-04T06:41:49.373Z,10.00
2023-01-04T06:46:52.993Z,7.70
2023-01-04T06:51:56.611Z,10.10
2023-01-04T06:57:00.026Z,7.40
2023-01-04T07:02:03.744Z,7.40
2023-01-04T07:07:07.566Z,9.20
2023-01-04T07:12:11.081Z,7.60
2023-01-04T07:17:15.004Z,7.10
2023-01-04T07:22:18.530Z,7.00
2023-01-04T07:27:22.243Z,6.90
2023-01-04T07:32:25.861Z,7.30
2023-01-04T07:37:29.385Z,11.40
2023-01-04T07:42:32.992Z,10.30
2023-01-04T07:47:36.534Z,12.10
2023-01-04T07:52:40.037Z,10.50
2023-01-04T07:57:43.554Z,9.70
2023-01-04T08:02:50.277Z,8.60
2023-01-04T08:07:53.953Z,10.40
2023-01-04T08:13:00.341Z,8.40
2023-01-04T08:18:04.155Z,12.20
2023-01-04T08:23:07.569Z,7.70
2023-01-04T08:28:11.102Z,8.90
2023-01-04T08:33:15.837Z,9.20
2023-01-04T08:38:58.308Z,9.40
2023-01-04T08:43:43.388Z,9.50
2023-01-04T08:48:46.853Z,10.70
2023-01-04T08:53:50.985Z,9.50
2023-01-04T08:58:54.597Z,10.20
2023-01-04T09:03:58.377Z,6.70
2023-01-04T09:09:02.053Z,3.90
2023-01-04T09:14:08.452Z,6.20
2023-01-04T09:19:18.084Z,5.90
2023-01-04T09:24:25.516Z,5.40
2023-01-04T09:29:29.007Z,5.90
2023-01-04T09:34:32.623Z,7.20
2023-01-04T09:39:36.139Z,7.90
2023-01-04T09:45:21.241Z,6.40
2023-01-04T09:50:15.739Z,7.00
2023-01-04T09:55:38.024Z,6.60
2023-01-04T10:05:57.207Z,5.80
2023-01-04T10:11:18.641Z,5.90
2023-01-04T10:17:13.698Z,6.00
2023-01-04T10:22:32.743Z,8.70
2023-01-04T10:27:46.303Z,11.40
2023-01-04T10:33:23.200Z,10.60
2023-01-04T10:38:33.264Z,9.80
2023-01-04T10:44:11.600Z,7.30
2023-01-04T10:49:29.444Z,6.40
2023-01-04T10:54:49.856Z,6.60
2023-01-04T11:00:20.100Z,5.00
2023-01-04T11:05:40.816Z,6.80
2023-01-04T11:10:48.433Z,5.20
2023-01-04T11:15:53.052Z,5.60
2023-01-04T11:20:56.486Z,6.00
2023-01-04T11:26:08.294Z,5.80
2023-01-04T11:31:25.164Z,5.60
2023-01-04T11:36:39.191Z,5.50
2023-01-04T11:42:02.962Z,6.20
2023-01-04T11:47:19.810Z,7.40
2023-01-04T11:52:34.277Z,6.90
2023-01-04T11:57:37.687Z,6.30
2023-01-04T12:08:05.207Z,6.50
2023-01-04T12:13:10.864Z,6.50
2023-01-04T12:18:23.288Z,6.40
2023-01-04T12:23:26.806Z,6.20
2023-01-04T12:28:40.183Z,6.60
2023-01-04T12:33:43.563Z,6.30
2023-01-04T12:38:53.221Z,6.90
2023-01-04T12:43:56.648Z,6.40
2023-01-04T12:49:20.122Z,6.50
2023-01-04T12:54:32.360Z,5.80
2023-01-04T12:59:39.167Z,6.20
2023-01-04T13:04:43.164Z,5.80
2023-01-04T13:09:54.777Z,6.60
2023-01-04T13:15:04.753Z,7.90
2023-01-04T13:20:30.366Z,6.20
2023-01-04T13:25:36.153Z,6.40
2023-01-04T13:30:40.063Z,6.70
2023-01-04T13:36:01.817Z,6.50
2023-01-04T13:41:20.375Z,7.20
2023-01-04T13:46:25.886Z,7.00
2023-01-04T13:51:39.588Z,7.20
2023-01-04T13:56:43.311Z,6.60
2023-01-04T14:01:51.794Z,7.10
2023-01-04T14:06:59.764Z,6.90
2023-01-04T14:12:26.732Z,6.10
2023-01-04T14:17:50.308Z,6.20
2023-01-04T14:22:56.697Z,5.40
2023-01-04T14:28:19.526Z,6.80
2023-01-04T14:33:26.974Z,5.60
2023-01-04T14:38:31.304Z,6.30
2023-01-04T14:43:36.355Z,6.70
2023-01-04T14:48:39.871Z,6.30
2023-01-04T14:53:43.592Z,7.40
2023-01-04T14:58:47.312Z,6.10
2023-01-04T15:03:50.896Z,6.80
2023-01-04T15:08:54.552Z,6.90
2023-01-04T15:13:58.079Z,6.00
2023-01-04T15:19:01.522Z,4.50
2023-01-04T15:24:06.735Z,7.00
2023-01-04T15:29:10.056Z,6.70
2023-01-04T15:34:14.685Z,8.20
2023-01-04T15:39:18.230Z,7.60
2023-01-04T15:44:21.728Z,7.30
2023-01-04T15:49:25.539Z,4.60
2023-01-04T15:54:29.375Z,5.60
2023-01-04T15:59:33.081Z,6.70
2023-01-04T16:04:37.446Z,6.40
2023-01-04T16:14:44.676Z,5.50
2023-01-04T16:19:48.170Z,6.90
2023-01-04T16:30:15.485Z,4.70
2023-01-04T16:35:18.992Z,4.20
2023-01-04T16:40:23.124Z,5.00
2023-01-04T16:45:26.469Z,4.60
2023-01-04T16:50:29.939Z,4.00
2023-01-04T16:55:34.287Z,4.00
2023-01-04T17:00:37.769Z,3.80
2023-01-04T17:05:41.417Z,4.00
2023-01-04T17:10:45.134Z,4.30
2023-01-04T17:15:48.655Z,3.10
2023-01-04T17:21:16.764Z,3.80
2023-01-04T17:26:27.169Z,3.70
2023-01-04T17:31:40.203Z,4.10
2023-01-04T17:36:44.618Z,4.30
2023-01-04T17:46:51.331Z,3.40
2023-01-04T17:51:55.583Z,3.20
2023-01-04T17:56:58.963Z,3.80
2023-01-04T18:02:02.592Z,3.10
2023-01-04T18:07:06.200Z,2.60
2023-01-04T18:12:09.714Z,2.80
2023-01-04T18:17:13.778Z,2.90
2023-01-04T18:22:17.370Z,2.80
2023-01-04T18:27:25.911Z,2.60
2023-01-04T18:32:30.331Z,2.30
2023-01-04T18:37:38.454Z,3.20
2023-01-04T18:42:46.606Z,2.90
2023-01-04T18:47:50.092Z,2.60
2023-01-04T18:52:54.325Z,2.60
2023-01-04T18:57:57.743Z,2.60
2023-01-04T19:03:01.780Z,2.30
2023-01-04T19:08:05.693Z,2.40
2023-01-04T19:13:09.103Z,2.00
2023-01-04T19:18:12.637Z,1.70
2023-01-04T19:23:16.238Z,1.80
2023-01-04T19:28:19.861Z,1.50
2023-01-04T19:33:23.379Z,2.10
2023-01-04T19:38:27.005Z,2.70
2023-01-04T19:43:30.505Z,2.80
2023-01-04T19:48:34.024Z,2.60
2023-01-04T19:53:38.460Z,2.50
2023-01-04T20:03:45.659Z,3.00
2023-01-04T20:08:49.215Z,2.80
2023-01-04T20:13:53.449Z,3.20
2023-01-04T20:18:58.190Z,3.00
2023-01-04T20:24:01.912Z,3.60
2023-01-04T20:29:17.622Z,2.80
2023-01-04T20:34:21.233Z,3.10
2023-01-04T20:39:24.848Z,3.40
2023-01-04T20:44:28.567Z,2.90
2023-01-04T20:49:32.084Z,2.90
2023-01-04T20:54:35.904Z,2.80
2023-01-04T20:59:39.320Z,2.70
2023-01-04T21:04:46.422Z,2.90
2023-01-04T21:09:49.937Z,3.00
2023-01-04T21:14:53.455Z,2.80
2023-01-04T21:19:56.971Z,2.10
2023-01-04T21:25:00.632Z,2.10
2023-01-04T21:30:05.826Z,1.90
2023-01-04T21:35:09.867Z,2.20
2023-01-04T21:40:13.284Z,3.70
2023-01-04T21:45:16.834Z,3.10
2023-01-04T21:50:20.414Z,3.10
2023-01-04T21:55:26.165Z,2.80
2023-01-04T22:00:33.177Z,3.50
2023-01-04T22:05:36.701Z,2.50
2023-01-04T22:10:40.314Z,4.00
2023-01-04T22:15:43.842Z,3.30
2023-01-04T22:20:47.649Z,2.90
2023-01-04T22:25:51.171Z,3.40
2023-01-04T22:30:56.218Z,3.30
2023-01-04T22:35:59.627Z,4.30
2023-01-04T22:41:12.465Z,8.50
2023-01-04T22:46:18.784Z,3.10
2023-01-04T22:51:22.875Z,2.60
2023-01-04T22:56:26.918Z,4.00
2023-01-04T23:01:33.301Z,2.80
2023-01-04T23:06:36.798Z,3.10
2023-01-04T23:11:41.342Z,3.80
2023-01-04T23:16:45.341Z,2.70
2023-01-04T23:21:48.879Z,3.20
2023-01-04T23:26:52.524Z,3.30
2023-01-04T23:31:56.283Z,3.10
2023-01-04T23:36:59.838Z,2.80
2023-01-04T23:42:03.557Z,2.30
2023-01-04T23:47:08.196Z,2.30
2023-01-04T23:52:12.239Z,1.90
2023-01-04T23:57:15.749Z,2.30
